Time;durP1;ratioP1;P1;durP2;ratioP2;P2;SDS_P1;SDS_P2;PMS_P1;PMS_P2;Temp;Humidity;BMP_temperature;BMP_pressure;BME280_temperature;BME280_humidity;BME280_pressure;Samples;Min_cycle;Max_cycle;Signal;HPM_P1;HPM_P2
2021/07/22 00:00:45;;;;;;;6.90;4.95;;;;;24.50;102186.00;;;;5067385;28;20576;-76
2021/07/22 00:03:12;;;;;;;6.22;4.28;;;;;24.50;102187.00;;;;5071616;28;20198;-77
2021/07/22 00:05:39;;;;;;;6.85;4.40;;;;;24.50;102182.00;;;;5075759;28;20292;-77
2021/07/22 00:08:11;;;;;;;6.47;4.28;;;;;24.50;102184.00;;;;5067058;28;20199;-76
2021/07/22 00:10:39;;;;;;;5.38;4.30;;;;;24.50;102179.00;;;;5074740;28;20218;-77
2021/07/22 00:13:07;;;;;;;8.00;4.50;;;;;24.40;102179.00;;;;5076465;28;20199;-77
2021/07/22 00:15:34;;;;;;;6.35;3.80;;;;;24.40;102176.00;;;;5072912;28;20199;-77
2021/07/22 00:18:03;;;;;;;6.53;4.32;;;;;24.40;102175.00;;;;5076592;28;20226;-77
2021/07/22 00:20:31;;;;;;;6.18;4.10;;;;;24.40;102175.00;;;;5072803;28;20218;-77
2021/07/22 00:22:58;;;;;;;5.05;3.63;;;;;24.40;102185.00;;;;5070355;28;20195;-77
2021/07/22 00:25:26;;;;;;;6.53;3.85;;;;;24.40;102177.00;;;;5081341;28;20218;-77
2021/07/22 00:27:54;;;;;;;6.00;4.20;;;;;24.40;102174.00;;;;5078551;28;20198;-77
2021/07/22 00:30:21;;;;;;;5.97;4.43;;;;;24.30;102172.00;;;;5073880;28;20251;-77
2021/07/22 00:32:48;;;;;;;5.72;4.30;;;;;24.30;102173.00;;;;5078930;28;20197;-77
2021/07/22 00:35:15;;;;;;;6.15;4.38;;;;;24.30;102182.00;;;;5070540;28;20203;-77
2021/07/22 00:37:43;;;;;;;6.20;4.20;;;;;24.30;102180.00;;;;5069974;28;20202;-76
2021/07/22 00:40:11;;;;;;;5.95;4.25;;;;;24.20;102172.00;;;;5074202;28;20202;-77
2021/07/22 00:42:59;;;;;;;5.95;4.07;;;;;24.10;102170.00;;;;5069607;28;20828;-77
2021/07/22 00:45:27;;;;;;;5.75;4.05;;;;;24.20;102161.00;;;;5071133;28;20210;-77
2021/07/22 00:47:55;;;;;;;6.07;4.25;;;;;24.20;102167.00;;;;5072220;28;20298;-77
2021/07/22 00:50:23;;;;;;;5.72;4.15;;;;;24.20;102166.00;;;;5080580;28;20226;-77
2021/07/22 00:52:50;;;;;;;5.80;4.13;;;;;24.10;102162.00;;;;5071101;28;20202;-77
2021/07/22 00:55:19;;;;;;;6.35;4.25;;;;;24.10;102160.00;;;;5080878;28;20249;-77
2021/07/22 00:57:46;;;;;;;6.63;4.63;;;;;24.10;102166.00;;;;5076842;28;20677;-77
2021/07/22 01:00:15;;;;;;;7.65;4.70;;;;;24.00;102168.00;;;;5074190;28;20203;-77
2021/07/22 01:02:43;;;;;;;6.10;4.32;;;;;24.00;102167.00;;;;5070949;28;20202;-77
2021/07/22 01:05:11;;;;;;;6.88;4.43;;;;;24.00;102165.00;;;;5070478;28;20211;-77
2021/07/22 01:07:38;;;;;;;6.07;4.32;;;;;24.00;102160.00;;;;5070415;28;20684;-78
2021/07/22 01:10:07;;;;;;;7.88;4.07;;;;;23.90;102162.00;;;;5078131;28;20600;-78
2021/07/22 01:12:35;;;;;;;7.88;3.90;;;;;23.90;102163.00;;;;5075601;28;20199;-78
2021/07/22 01:15:02;;;;;;;5.50;3.80;;;;;23.90;102156.00;;;;5083174;28;20241;-78
2021/07/22 01:17:39;;;;;;;6.40;3.88;;;;;23.80;102165.00;;;;5073292;28;20217;-78
2021/07/22 01:20:12;;;;;;;6.07;3.90;;;;;23.80;102167.00;;;;5074763;28;20191;-78
2021/07/22 01:22:39;;;;;;;6.38;4.55;;;;;23.80;102167.00;;;;5083358;28;20501;-78
2021/07/22 01:25:08;;;;;;;6.25;4.57;;;;;23.80;102163.00;;;;5079398;28;20199;-78
2021/07/22 01:27:35;;;;;;;5.78;3.75;;;;;23.80;102163.00;;;;5068583;28;20198;-78
2021/07/22 01:30:03;;;;;;;4.57;3.53;;;;;23.80;102162.00;;;;5068789;28;20226;-78
2021/07/22 01:32:30;;;;;;;6.13;3.80;;;;;23.80;102162.00;;;;5081387;28;20194;-79
2021/07/22 01:34:58;;;;;;;6.00;4.20;;;;;23.70;102164.00;;;;5068420;28;20198;-78
2021/07/22 01:37:27;;;;;;;5.47;3.40;;;;;23.70;102155.00;;;;5069222;28;20249;-78
2021/07/22 01:39:54;;;;;;;4.93;3.60;;;;;23.70;102156.00;;;;5071571;28;20198;-78
2021/07/22 01:42:21;;;;;;;3.72;2.80;;;;;23.70;102155.00;;;;5076771;28;20203;-78
2021/07/22 01:44:49;;;;;;;4.85;3.75;;;;;23.60;102153.00;;;;5078485;28;20195;-78
2021/07/22 01:47:16;;;;;;;4.07;3.35;;;;;23.60;102155.00;;;;5081004;28;20734;-78
2021/07/22 01:49:43;;;;;;;5.75;4.05;;;;;23.60;102155.00;;;;5077065;28;20219;-78
2021/07/22 01:52:11;;;;;;;6.18;3.75;;;;;23.60;102160.00;;;;5071498;28;20203;-78
2021/07/22 01:54:39;;;;;;;5.25;4.03;;;;;23.50;102153.00;;;;5079744;28;20282;-78
2021/07/22 01:57:07;;;;;;;4.50;3.40;;;;;23.50;102151.00;;;;5068368;28;20195;-78
2021/07/22 01:59:36;;;;;;;5.20;3.50;;;;;23.50;102155.00;;;;5071313;28;20559;-78
2021/07/22 02:02:04;;;;;;;4.55;3.70;;;;;23.50;102157.00;;;;5076251;28;21049;-78
2021/07/22 02:04:32;;;;;;;4.40;3.10;;;;;23.50;102145.00;;;;5068237;28;20245;-78
2021/07/22 02:07:00;;;;;;;4.30;3.10;;;;;23.40;102155.00;;;;5071687;28;20199;-78
2021/07/22 02:09:27;;;;;;;5.15;3.30;;;;;23.40;102154.00;;;;5071144;28;20204;-78
2021/07/22 02:11:57;;;;;;;5.68;3.47;;;;;23.40;102153.00;;;;5067900;28;20199;-78
2021/07/22 02:14:26;;;;;;;5.05;3.25;;;;;23.30;102154.00;;;;5071917;28;20198;-78
2021/07/22 02:16:53;;;;;;;4.72;3.63;;;;;23.30;102150.00;;;;5079653;28;20634;-78
2021/07/22 02:19:21;;;;;;;4.07;3.30;;;;;23.30;102151.00;;;;5072773;28;20206;-78
2021/07/22 02:21:48;;;;;;;6.50;3.72;;;;;23.30;102152.00;;;;5073026;28;20253;-78
2021/07/22 02:24:16;;;;;;;4.28;3.10;;;;;23.30;102146.00;;;;5081812;28;20210;-78
2021/07/22 02:26:44;;;;;;;6.80;3.55;;;;;23.20;102157.00;;;;5068490;28;20195;-78
2021/07/22 02:29:12;;;;;;;6.15;3.58;;;;;23.20;102147.00;;;;5068751;28;20206;-78
2021/07/22 02:31:39;;;;;;;5.13;3.75;;;;;23.20;102153.00;;;;5073627;28;20218;-78
2021/07/22 02:34:06;;;;;;;5.90;3.25;;;;;23.20;102151.00;;;;5084615;28;20206;-78
2021/07/22 02:36:34;;;;;;;4.45;3.22;;;;;23.20;102139.00;;;;5069389;28;20292;-78
2021/07/22 02:39:02;;;;;;;4.78;3.20;;;;;23.10;102148.00;;;;5071812;28;20544;-78
2021/07/22 02:41:30;;;;;;;5.47;3.78;;;;;23.10;102147.00;;;;5071665;28;20203;-78
2021/07/22 02:43:57;;;;;;;4.82;3.42;;;;;23.10;102150.00;;;;5067509;28;20199;-79
2021/07/22 02:46:26;;;;;;;5.68;3.88;;;;;23.10;102149.00;;;;5068284;28;20234;-78
2021/07/22 02:48:57;;;;;;;4.68;3.60;;;;;23.00;102147.00;;;;5082850;28;20201;-78
2021/07/22 02:51:24;;;;;;;5.00;3.53;;;;;23.00;102155.00;;;;5083148;28;20226;-78
2021/07/22 02:53:51;;;;;;;5.40;4.00;;;;;23.00;102157.00;;;;5095557;28;20191;-78
2021/07/22 02:56:19;;;;;;;7.13;4.15;;;;;23.00;102150.00;;;;5070294;28;20210;-78
2021/07/22 02:58:46;;;;;;;5.13;3.83;;;;;23.00;102158.00;;;;5068552;28;20195;-78
2021/07/22 03:01:13;;;;;;;5.05;3.75;;;;;23.00;102158.00;;;;5068784;28;20222;-78
2021/07/22 03:03:42;;;;;;;5.38;3.35;;;;;22.90;102161.00;;;;5070253;28;20198;-78
2021/07/22 03:06:13;;;;;;;5.90;4.38;;;;;22.90;102158.00;;;;5067969;28;20210;-78
2021/07/22 03:08:41;;;;;;;5.00;3.22;;;;;22.90;102159.00;;;;5074997;28;20210;-78
2021/07/22 03:11:10;;;;;;;6.38;3.67;;;;;22.90;102162.00;;;;5080039;28;20242;-78
2021/07/22 03:13:37;;;;;;;5.55;4.07;;;;;22.90;102155.00;;;;5076176;28;20692;-78
2021/07/22 03:16:06;;;;;;;5.88;4.00;;;;;22.80;102152.00;;;;5081047;28;20201;-78
2021/07/22 03:18:33;;;;;;;5.85;3.88;;;;;22.80;102156.00;;;;5081987;28;20297;-78
2021/07/22 03:21:02;;;;;;;5.28;3.63;;;;;22.80;102158.00;;;;5067356;28;20241;-78
2021/07/22 03:23:29;;;;;;;6.53;4.22;;;;;22.80;102153.00;;;;5075320;28;20199;-78
2021/07/22 03:25:56;;;;;;;5.72;4.15;;;;;22.80;102158.00;;;;5068739;28;20198;-78
2021/07/22 03:28:24;;;;;;;9.60;4.40;;;;;22.80;102160.00;;;;5067530;28;20195;-78
2021/07/22 03:30:51;;;;;;;5.97;3.88;;;;;22.80;102159.00;;;;5068066;28;20250;-78
2021/07/22 03:33:18;;;;;;;5.15;3.85;;;;;22.70;102149.00;;;;5070054;28;20766;-78
2021/07/22 03:35:45;;;;;;;6.13;4.35;;;;;22.70;102150.00;;;;5067217;28;20227;-78
2021/07/22 03:38:14;;;;;;;6.07;4.15;;;;;22.70;102152.00;;;;5074900;28;20218;-78
2021/07/22 03:40:41;;;;;;;7.28;4.82;;;;;22.70;102153.00;;;;5077099;28;20195;-78
2021/07/22 03:43:08;;;;;;;8.65;4.45;;;;;22.70;102146.00;;;;5069983;28;21005;-78
2021/07/22 03:45:36;;;;;;;8.00;4.75;;;;;22.70;102145.00;;;;5077459;28;20206;-78
2021/07/22 03:48:05;;;;;;;7.43;4.88;;;;;22.60;102151.00;;;;5074073;28;20220;-78
2021/07/22 03:50:32;;;;;;;6.97;5.10;;;;;22.60;102147.00;;;;5081555;28;20238;-78
2021/07/22 03:52:59;;;;;;;7.65;5.50;;;;;22.60;102150.00;;;;5070926;28;20202;-78
2021/07/22 03:55:28;;;;;;;6.82;4.75;;;;;22.60;102148.00;;;;5078791;28;20210;-78
2021/07/22 03:57:57;;;;;;;8.38;4.20;;;;;22.60;102149.00;;;;5079433;28;20209;-78
2021/07/22 04:00:25;;;;;;;9.35;5.32;;;;;22.60;102151.00;;;;5090186;28;20230;-78
2021/07/22 04:03:01;;;;;;;9.55;5.25;;;;;22.50;102144.00;;;;5076737;28;20538;-78
2021/07/22 04:05:29;;;;;;;8.75;5.00;;;;;22.50;102143.00;;;;5078422;28;20198;-79
2021/07/22 04:07:57;;;;;;;7.13;5.43;;;;;22.50;102147.00;;;;5078399;28;20905;-78
2021/07/22 04:10:27;;;;;;;7.47;5.18;;;;;22.50;102150.00;;;;5088582;28;20279;-78
2021/07/22 04:12:59;;;;;;;6.60;4.95;;;;;22.50;102148.00;;;;5077808;28;20202;-78
2021/07/22 04:15:27;;;;;;;8.75;5.53;;;;;22.50;102159.00;;;;5084468;28;20201;-78
2021/07/22 04:17:55;;;;;;;7.82;5.80;;;;;22.50;102145.00;;;;5088182;28;20218;-78
2021/07/22 04:20:25;;;;;;;6.63;4.78;;;;;22.50;102149.00;;;;5084548;28;20210;-78
2021/07/22 04:22:53;;;;;;;7.60;5.10;;;;;22.50;102149.00;;;;5084990;28;20664;-78
2021/07/22 04:25:21;;;;;;;9.93;5.80;;;;;22.50;102159.00;;;;5088463;28;20283;-78
2021/07/22 04:27:49;;;;;;;7.38;4.97;;;;;22.40;102158.00;;;;5088631;28;20197;-78
2021/07/22 04:30:17;;;;;;;7.15;4.78;;;;;22.50;102158.00;;;;5083806;28;20648;-78
2021/07/22 04:32:46;;;;;;;10.57;5.43;;;;;22.50;102161.00;;;;5081983;28;20202;-78
2021/07/22 04:35:14;;;;;;;7.47;4.93;;;;;22.50;102155.00;;;;5082400;28;20194;-78
2021/07/22 04:37:41;;;;;;;8.30;5.22;;;;;22.50;102153.00;;;;5081772;28;20195;-78
2021/07/22 04:40:09;;;;;;;8.38;5.07;;;;;22.50;102153.00;;;;5089371;28;20209;-78
2021/07/22 04:42:36;;;;;;;7.03;4.93;;;;;22.50;102160.00;;;;5087761;28;21019;-78
2021/07/22 04:45:06;;;;;;;7.85;5.40;;;;;22.50;102159.00;;;;5085574;28;20202;-78
2021/07/22 04:47:33;;;;;;;8.88;5.47;;;;;22.60;102162.00;;;;5088561;28;20591;-78
2021/07/22 04:50:00;;;;;;;8.25;5.50;;;;;22.60;102161.00;;;;5085959;28;20203;-78
2021/07/22 04:52:27;;;;;;;7.40;5.75;;;;;22.60;102158.00;;;;5080931;28;20224;-79
2021/07/22 04:54:55;;;;;;;8.63;5.90;;;;;22.70;102164.00;;;;5075837;28;20203;-79
2021/07/22 04:57:22;;;;;;;8.85;5.40;;;;;22.70;102159.00;;;;5086801;28;20198;-79
2021/07/22 04:59:49;;;;;;;7.47;5.57;;;;;22.70;102165.00;;;;5083744;28;20198;-79
2021/07/22 05:02:19;;;;;;;8.27;4.90;;;;;22.70;102168.00;;;;5088776;28;20193;-78
2021/07/22 05:04:46;;;;;;;9.82;6.65;;;;;22.80;102170.00;;;;5085491;28;20276;-80
2021/07/22 05:07:14;;;;;;;9.43;6.30;;;;;22.80;102166.00;;;;5076074;28;20198;-79
2021/07/22 05:09:41;;;;;;;10.65;6.68;;;;;22.80;102163.00;;;;5082108;28;20206;-80
2021/07/22 05:12:09;;;;;;;12.32;6.38;;;;;22.90;102166.00;;;;5087621;28;20234;-79
2021/07/22 05:14:37;;;;;;;8.63;5.25;;;;;22.90;102162.00;;;;5077386;28;20213;-80
2021/07/22 05:17:04;;;;;;;9.90;6.50;;;;;22.90;102165.00;;;;5077802;28;20464;-78
2021/07/22 05:19:33;;;;;;;8.57;6.20;;;;;23.00;102167.00;;;;5075270;28;20213;-79
2021/07/22 05:22:00;;;;;;;9.85;6.93;;;;;23.00;102171.00;;;;5073306;28;20190;-79
2021/07/22 05:24:27;;;;;;;9.70;6.53;;;;;23.10;102169.00;;;;5076688;28;20247;-78
2021/07/22 05:26:55;;;;;;;10.10;6.25;;;;;23.10;102168.00;;;;5072459;28;20473;-80
2021/07/22 05:29:22;;;;;;;8.32;6.00;;;;;23.20;102172.00;;;;5070103;28;20207;-79
2021/07/22 05:31:49;;;;;;;9.07;6.13;;;;;23.20;102181.00;;;;5070335;28;20244;-78
2021/07/22 05:34:16;;;;;;;11.13;6.80;;;;;23.30;102181.00;;;;5082074;28;20205;-79
2021/07/22 05:36:45;;;;;;;9.07;6.55;;;;;23.30;102181.00;;;;5072683;28;20922;-78
2021/07/22 05:39:12;;;;;;;8.95;6.13;;;;;23.40;102184.00;;;;5070995;28;20210;-80
2021/07/22 05:41:39;;;;;;;7.25;5.20;;;;;23.40;102184.00;;;;5074995;28;20203;-78
2021/07/22 05:44:07;;;;;;;13.57;6.35;;;;;23.40;102179.00;;;;5070988;28;20208;-79
2021/07/22 05:46:35;;;;;;;8.38;5.95;;;;;23.50;102174.00;;;;5080881;28;20656;-79
2021/07/22 05:49:02;;;;;;;8.10;5.85;;;;;23.50;102177.00;;;;5075468;28;20614;-80
2021/07/22 05:51:31;;;;;;;11.60;6.35;;;;;23.60;102175.00;;;;5079619;28;20218;-79
2021/07/22 05:54:00;;;;;;;8.35;6.20;;;;;23.60;102179.00;;;;5069760;28;20191;-79
2021/07/22 05:56:27;;;;;;;8.35;5.93;;;;;23.70;102174.00;;;;5091984;28;20193;-79
2021/07/22 05:58:55;;;;;;;8.63;6.40;;;;;23.70;102180.00;;;;5077307;28;20203;-79
2021/07/22 06:01:22;;;;;;;9.50;5.65;;;;;23.80;102177.00;;;;5075065;28;20229;-79
2021/07/22 06:03:49;;;;;;;9.10;5.95;;;;;23.80;102181.00;;;;5076722;28;20228;-80
2021/07/22 06:06:17;;;;;;;9.02;6.22;;;;;23.80;102183.00;;;;5073436;28;20556;-80
2021/07/22 06:08:44;;;;;;;8.65;6.35;;;;;23.90;102178.00;;;;5073436;28;20190;-80
2021/07/22 06:11:13;;;;;;;8.82;5.70;;;;;23.90;102177.00;;;;5094198;28;20222;-78
2021/07/22 06:13:41;;;;;;;7.00;5.00;;;;;24.00;102176.00;;;;5068186;28;20615;-79
2021/07/22 06:16:13;;;;;;;8.45;5.95;;;;;24.00;102180.00;;;;5068611;28;20211;-79
2021/07/22 06:18:41;;;;;;;8.77;5.68;;;;;24.10;102179.00;;;;5067894;28;20215;-79
2021/07/22 06:21:13;;;;;;;8.65;5.82;;;;;24.10;102176.00;;;;5069444;28;20207;-79
2021/07/22 06:23:40;;;;;;;8.68;5.68;;;;;24.20;102181.00;;;;5074156;28;20672;-80
2021/07/22 06:26:07;;;;;;;10.52;6.28;;;;;24.20;102176.00;;;;5085237;28;20207;-80
2021/07/22 06:28:36;;;;;;;9.93;6.20;;;;;24.30;102181.00;;;;5069205;28;20651;-79
2021/07/22 06:31:03;;;;;;;8.02;5.85;;;;;24.30;102175.00;;;;5068403;28;20222;-78
2021/07/22 06:33:31;;;;;;;7.22;5.47;;;;;24.40;102181.00;;;;5068637;28;20195;-82
2021/07/22 06:35:58;;;;;;;8.85;5.97;;;;;24.50;102181.00;;;;5066588;28;20234;-81
2021/07/22 06:38:29;;;;;;;7.13;5.65;;;;;24.50;102177.00;;;;5066624;28;20568;-83
2021/07/22 06:40:56;;;;;;;8.98;6.70;;;;;24.60;102171.00;;;;5067254;28;20615;-82
2021/07/22 06:43:23;;;;;;;7.88;5.72;;;;;24.70;102180.00;;;;5076509;28;20194;-83
2021/07/22 06:45:52;;;;;;;7.75;6.07;;;;;24.70;102175.00;;;;5078861;28;20205;-81
2021/07/22 06:48:19;;;;;;;7.10;5.72;;;;;24.80;102177.00;;;;5076004;28;20237;-82
2021/07/22 06:50:46;;;;;;;7.13;4.88;;;;;24.90;102177.00;;;;5068787;28;20206;-81
2021/07/22 06:53:13;;;;;;;7.32;6.05;;;;;24.90;102180.00;;;;5068837;28;20213;-81
2021/07/22 06:55:41;;;;;;;9.15;5.88;;;;;25.00;102180.00;;;;5080691;28;20197;-83
2021/07/22 06:58:09;;;;;;;7.63;6.00;;;;;25.00;102178.00;;;;5072731;28;20206;-81
2021/07/22 07:00:37;;;;;;;7.50;6.00;;;;;25.10;102175.00;;;;5068857;28;20205;-82
2021/07/22 07:03:07;;;;;;;7.50;5.90;;;;;25.10;102170.00;;;;5068896;28;20286;-82
2021/07/22 07:05:34;;;;;;;6.90;4.97;;;;;25.20;102175.00;;;;5077467;28;20206;-82
2021/07/22 07:08:02;;;;;;;7.10;4.80;;;;;25.20;102185.00;;;;5084381;28;20664;-80
2021/07/22 07:10:30;;;;;;;6.35;5.72;;;;;25.20;102177.00;;;;5087467;28;20668;-78
2021/07/22 07:12:57;;;;;;;6.63;4.43;;;;;25.20;102184.00;;;;5067905;28;20238;-80
2021/07/22 07:15:25;;;;;;;4.75;4.13;;;;;25.30;102191.00;;;;5073336;28;20247;-79
2021/07/22 07:17:52;;;;;;;5.80;4.82;;;;;25.30;102186.00;;;;5071463;28;20591;-80
2021/07/22 07:20:21;;;;;;;6.35;4.88;;;;;25.30;102191.00;;;;5069582;28;20925;-80
2021/07/22 07:22:50;;;;;;;5.75;4.68;;;;;25.30;102191.00;;;;5069499;28;20206;-80
2021/07/22 07:25:18;;;;;;;7.03;4.28;;;;;25.30;102191.00;;;;5068465;28;20206;-80
2021/07/22 07:27:45;;;;;;;5.68;4.90;;;;;25.30;102194.00;;;;5071368;28;20209;-80
2021/07/22 07:30:13;;;;;;;7.53;4.97;;;;;25.40;102189.00;;;;5083949;28;20209;-80
2021/07/22 07:32:41;;;;;;;5.72;4.57;;;;;25.50;102193.00;;;;5071885;28;20655;-80
2021/07/22 07:35:08;;;;;;;5.68;4.38;;;;;25.60;102185.00;;;;5073427;28;20232;-80
2021/07/22 07:37:37;;;;;;;4.63;4.05;;;;;25.70;102179.00;;;;5081821;28;20226;-80
2021/07/22 07:40:05;;;;;;;7.18;4.78;;;;;25.80;102191.00;;;;5077237;28;20202;-80
2021/07/22 07:42:33;;;;;;;6.15;4.10;;;;;25.90;102195.00;;;;5073890;28;20203;-80
2021/07/22 07:45:00;;;;;;;5.03;3.55;;;;;26.00;102197.00;;;;5091590;28;20221;-80
2021/07/22 07:47:27;;;;;;;5.53;3.78;;;;;26.20;102203.00;;;;5099792;28;20201;-80
2021/07/22 07:49:54;;;;;;;6.25;5.05;;;;;26.30;102196.00;;;;5090813;28;20198;-80
2021/07/22 07:52:22;;;;;;;5.22;3.70;;;;;26.30;102202.00;;;;5084004;28;20223;-84
2021/07/22 07:54:53;;;;;;;5.00;3.80;;;;;26.30;102203.00;;;;5082392;28;20209;-79
2021/07/22 07:57:20;;;;;;;8.18;4.88;;;;;26.30;102202.00;;;;5092244;28;20209;-80
2021/07/22 07:59:47;;;;;;;5.20;3.92;;;;;26.30;102209.00;;;;5085505;28;20187;-81
2021/07/22 08:02:15;;;;;;;4.40;4.00;;;;;26.30;102214.00;;;;5076795;28;20194;-79
2021/07/22 08:04:43;;;;;;;3.47;3.17;;;;;26.30;102196.00;;;;5090836;28;20540;-79
2021/07/22 08:07:10;;;;;;;4.95;3.85;;;;;26.30;102212.00;;;;5095064;28;20519;-79
2021/07/22 08:09:37;;;;;;;5.55;4.38;;;;;26.20;102211.00;;;;5088678;28;20199;-79
2021/07/22 08:12:07;;;;;;;4.85;3.88;;;;;26.20;102205.00;;;;5071333;28;20272;-80
2021/07/22 08:14:36;;;;;;;4.93;3.90;;;;;26.20;102207.00;;;;5087919;28;20197;-80
2021/07/22 08:17:05;;;;;;;5.25;3.72;;;;;26.20;102202.00;;;;5078125;28;20678;-79
2021/07/22 08:19:32;;;;;;;5.22;3.65;;;;;26.20;102201.00;;;;5091145;28;20990;-78
2021/07/22 08:21:59;;;;;;;5.05;3.38;;;;;26.30;102204.00;;;;5082766;28;20210;-78
2021/07/22 08:24:27;;;;;;;5.50;3.28;;;;;26.40;102212.00;;;;5089738;28;20198;-81
2021/07/22 08:26:54;;;;;;;4.53;3.13;;;;;26.40;102199.00;;;;5075717;28;20197;-77
2021/07/22 08:29:23;;;;;;;4.45;3.03;;;;;26.60;102198.00;;;;5078872;28;20198;-77
2021/07/22 08:31:50;;;;;;;4.53;3.50;;;;;26.70;102204.00;;;;5085695;28;20214;-77
2021/07/22 08:34:19;;;;;;;4.35;3.47;;;;;26.90;102205.00;;;;5074962;28;20191;-77
2021/07/22 08:36:47;;;;;;;5.25;3.35;;;;;27.00;102213.00;;;;5070169;28;20322;-78
2021/07/22 08:39:14;;;;;;;4.53;3.20;;;;;27.10;102213.00;;;;5070837;28;20202;-77
2021/07/22 08:41:44;;;;;;;4.13;3.40;;;;;27.10;102211.00;;;;5070251;28;20207;-78
2021/07/22 08:44:13;;;;;;;4.60;2.97;;;;;27.10;102208.00;;;;5071529;28;20236;-78
2021/07/22 08:46:45;;;;;;;5.15;3.47;;;;;27.00;102208.00;;;;5094816;28;20287;-78
2021/07/22 08:49:12;;;;;;;3.58;3.00;;;;;27.00;102211.00;;;;5082705;28;20217;-80
2021/07/22 08:51:40;;;;;;;5.35;2.95;;;;;27.00;102209.00;;;;5069985;28;20645;-80
2021/07/22 08:54:07;;;;;;;4.97;3.10;;;;;27.00;102210.00;;;;5081013;28;20202;-79
2021/07/22 08:56:35;;;;;;;4.07;2.80;;;;;27.00;102208.00;;;;5073849;28;20203;-79
2021/07/22 08:59:03;;;;;;;8.18;3.65;;;;;27.00;102207.00;;;;5084411;28;20202;-79
2021/07/22 09:01:36;;;;;;;3.30;2.95;;;;;27.00;102200.00;;;;5070837;28;20665;-79
2021/07/22 09:04:04;;;;;;;3.17;2.85;;;;;27.00;102199.00;;;;5075888;28;20203;-79
2021/07/22 09:06:32;;;;;;;3.80;2.67;;;;;27.10;102200.00;;;;5101404;28;20197;-80
2021/07/22 09:09:10;;;;;;;3.40;2.78;;;;;27.30;102201.00;;;;5074562;28;20194;-78
2021/07/22 09:11:52;;;;;;;3.58;2.85;;;;;27.40;102191.00;;;;5085140;28;20205;-79
2021/07/22 09:14:19;;;;;;;4.50;3.05;;;;;27.60;102195.00;;;;5077561;28;20202;-79
2021/07/22 09:16:47;;;;;;;4.25;3.53;;;;;27.70;102201.00;;;;5069958;28;20605;-79
2021/07/22 09:19:32;;;;;;;3.95;3.22;;;;;27.80;102205.00;;;;5075862;28;20195;-79
2021/07/22 09:22:00;;;;;;;4.22;3.15;;;;;28.00;102211.00;;;;5083421;28;20202;-79
2021/07/22 09:24:27;;;;;;;3.75;2.67;;;;;28.00;102209.00;;;;5072296;28;20205;-79
2021/07/22 09:26:56;;;;;;;5.03;3.90;;;;;28.00;102212.00;;;;5070144;28;20195;-80
2021/07/22 09:29:23;;;;;;;3.97;2.70;;;;;28.00;102212.00;;;;5069751;28;20673;-78
2021/07/22 09:31:51;;;;;;;4.07;3.13;;;;;28.00;102208.00;;;;5069358;28;20286;-78
2021/07/22 09:34:25;;;;;;;3.15;2.85;;;;;28.00;102213.00;;;;5069183;28;20556;-78
2021/07/22 09:36:52;;;;;;;3.08;2.35;;;;;28.10;102211.00;;;;5079943;28;20237;-81
2021/07/22 09:39:22;;;;;;;4.53;3.00;;;;;28.20;102205.00;;;;5098628;28;20198;-81
2021/07/22 09:42:00;;;;;;;3.15;2.83;;;;;28.30;102213.00;;;;5079009;28;20225;-81
2021/07/22 09:44:33;;;;;;;4.32;3.33;;;;;28.50;102204.00;;;;5071783;28;20198;-81
2021/07/22 09:47:01;;;;;;;3.90;2.92;;;;;28.60;102207.00;;;;5068682;28;20203;-81
2021/07/22 09:49:35;;;;;;;11.40;3.15;;;;;28.80;102207.00;;;;5068925;28;20203;-81
2021/07/22 09:52:03;;;;;;;3.65;2.80;;;;;29.00;102219.00;;;;5071504;28;20230;-82
2021/07/22 09:54:35;;;;;;;3.00;2.70;;;;;29.10;102216.00;;;;5075742;28;20201;-80
2021/07/22 09:57:04;;;;;;;3.55;3.08;;;;;29.30;102213.00;;;;5081723;28;20607;-81
2021/07/22 09:59:31;;;;;;;5.22;3.03;;;;;29.40;102224.00;;;;5068879;28;20621;-80
2021/07/22 10:02:03;;;;;;;3.53;2.85;;;;;29.50;102221.00;;;;5073010;28;20245;-81
2021/07/22 10:04:36;;;;;;;3.05;2.72;;;;;29.50;102230.00;;;;5069116;28;20692;-80
2021/07/22 10:07:04;;;;;;;6.30;3.03;;;;;29.50;102218.00;;;;5076671;28;20221;-80
2021/07/22 10:09:37;;;;;;;5.68;2.78;;;;;29.50;102217.00;;;;5070864;28;20195;-80
2021/07/22 10:12:05;;;;;;;3.08;2.72;;;;;29.60;102220.00;;;;5086434;28;20214;-81
2021/07/22 10:14:34;;;;;;;4.20;2.83;;;;;29.50;102218.00;;;;5080045;28;20198;-80
2021/07/22 10:17:04;;;;;;;4.15;2.70;;;;;29.50;102216.00;;;;5072700;28;20206;-79
2021/07/22 10:19:34;;;;;;;4.18;2.47;;;;;29.40;102214.00;;;;5068084;28;20203;-80
2021/07/22 10:22:04;;;;;;;4.85;2.75;;;;;29.40;102216.00;;;;5068386;28;20191;-81
2021/07/22 10:24:32;;;;;;;5.55;2.85;;;;;29.30;102214.00;;;;5069628;28;20210;-80
2021/07/22 10:27:00;;;;;;;3.08;2.40;;;;;29.30;102213.00;;;;5073009;28;20203;-78
2021/07/22 10:29:28;;;;;;;3.40;2.83;;;;;29.20;102216.00;;;;5071414;28;20209;-82
2021/07/22 10:31:56;;;;;;;4.53;2.50;;;;;29.10;102209.00;;;;5075341;28;20628;-80
2021/07/22 10:34:25;;;;;;;4.97;3.05;;;;;29.00;102207.00;;;;5068669;28;20214;-80
2021/07/22 10:36:54;;;;;;;2.97;2.67;;;;;29.00;102217.00;;;;5075896;28;20226;-82
2021/07/22 10:40:09;;;;;;;3.22;2.65;;;;;28.90;102199.00;;;;5074555;28;20684;-81
2021/07/22 10:42:42;;;;;;;5.85;2.47;;;;;28.90;102208.00;;;;5026756;28;20214;-80
2021/07/22 10:45:25;;;;;;;3.00;2.55;;;;;28.90;102200.00;;;;5030364;28;20201;-81
2021/07/22 10:48:08;;;;;;;3.55;2.60;;;;;29.00;102200.00;;;;5064259;28;21059;-81
2021/07/22 10:51:01;;;;;;;3.88;3.00;;;;;29.00;102203.00;;;;5085800;28;20206;-81
2021/07/22 10:53:48;;;;;;;2.88;2.58;;;;;28.90;102205.00;;;;5074968;28;20708;-81
2021/07/22 10:56:35;;;;;;;3.45;2.85;;;;;29.00;102201.00;;;;5084308;28;20202;-81
2021/07/22 10:59:02;;;;;;;4.97;2.75;;;;;29.00;102204.00;;;;5064869;28;20209;-80
2021/07/22 11:01:50;;;;;;;2.83;2.47;;;;;29.00;102201.00;;;;5079133;28;20224;-79
2021/07/22 11:04:47;;;;;;;3.33;2.92;;;;;29.00;102196.00;;;;5071423;28;20305;-80
2021/07/22 11:07:26;;;;;;;4.38;2.63;;;;;29.10;102190.00;;;;5068099;28;20696;-80
2021/07/22 11:09:58;;;;;;;2.90;2.60;;;;;29.10;102191.00;;;;5067001;28;20289;-81
2021/07/22 11:12:50;;;;;;;3.15;2.85;;;;;29.10;102194.00;;;;5081919;28;20222;-79
2021/07/22 11:16:01;;;;;;;3.67;2.58;;;;;29.10;102192.00;;;;5067710;28;20202;-80
2021/07/22 11:18:49;;;;;;;3.75;2.70;;;;;29.10;102191.00;;;;5076327;28;20257;-80
2021/07/22 11:21:19;;;;;;;4.38;2.65;;;;;29.20;102186.00;;;;5067684;28;20202;-80
2021/07/22 11:24:06;;;;;;;2.35;2.15;;;;;29.00;102185.00;;;;5074489;28;20540;-80
2021/07/22 11:26:36;;;;;;;4.47;3.10;;;;;29.10;102179.00;;;;5088547;28;20225;-80
2021/07/22 11:29:06;;;;;;;3.28;2.55;;;;;29.20;102180.00;;;;5074548;28;20205;-80
2021/07/22 11:31:38;;;;;;;3.80;2.85;;;;;29.20;102177.00;;;;5072414;28;20216;-80
2021/07/22 11:34:06;;;;;;;2.88;2.58;;;;;29.20;102176.00;;;;5071836;28;20230;-80
2021/07/22 11:36:34;;;;;;;3.70;2.38;;;;;29.20;102177.00;;;;5073718;28;20222;-79
2021/07/22 11:39:01;;;;;;;2.85;2.40;;;;;29.30;102175.00;;;;5071667;28;20203;-79
2021/07/22 11:41:29;;;;;;;4.47;2.85;;;;;29.30;102178.00;;;;5074704;28;20213;-80
2021/07/22 11:43:58;;;;;;;5.22;3.25;;;;;29.30;102168.00;;;;5073370;28;20231;-80
2021/07/22 11:46:40;;;;;;;4.00;2.58;;;;;29.30;102177.00;;;;5067776;28;20212;-80
2021/07/22 11:49:08;;;;;;;4.50;2.95;;;;;29.30;102168.00;;;;5068777;28;20197;-81
2021/07/22 11:51:36;;;;;;;2.40;2.17;;;;;29.30;102166.00;;;;5081687;28;20198;-82
2021/07/22 11:54:04;;;;;;;2.92;2.45;;;;;29.30;102162.00;;;;5070390;28;20240;-81
2021/07/22 11:56:33;;;;;;;2.78;2.53;;;;;29.40;102163.00;;;;5071867;28;20216;-83
2021/07/22 11:59:05;;;;;;;3.30;2.33;;;;;29.40;102162.00;;;;5075845;28;20652;-80
2021/07/22 12:01:34;;;;;;;3.25;2.65;;;;;29.50;102146.00;;;;5076137;28;20225;-79
2021/07/22 12:04:01;;;;;;;2.63;2.33;;;;;29.50;102164.00;;;;5086306;28;20252;-80
2021/07/22 12:06:30;;;;;;;3.38;2.38;;;;;29.50;102156.00;;;;5075056;28;20582;-80
2021/07/22 12:09:05;;;;;;;3.83;2.40;;;;;29.40;102157.00;;;;5066491;28;20196;-80
2021/07/22 12:11:44;;;;;;;3.58;2.42;;;;;29.40;102152.00;;;;5067050;28;20202;-81
2021/07/22 12:14:13;;;;;;;2.92;2.25;;;;;29.40;102147.00;;;;5070304;28;20429;-80
2021/07/22 12:16:42;;;;;;;5.15;2.58;;;;;29.40;102152.00;;;;5071599;28;20325;-80
2021/07/22 12:19:10;;;;;;;3.10;2.35;;;;;29.30;102146.00;;;;5071619;28;20593;-80